sensor_id;sensor_type;location;lat;lon;timestamp;pressure;altitude;pressure_sealevel;temperature;humidity
12763;BME280;6445;52.490;13.378;2023-03-14T00:01:09;94277.81;;;-146.10;100.00
12763;BME280;6445;52.490;13.378;2023-03-14T00:03:34;94019.06;;;-146.10;100.00
12763;BME280;6445;52.490;13.378;2023-03-14T00:06:04;94277.81;;;-146.10;100.00
12763;BME280;6445;52.490;13.378;2023-03-14T00:08:29;94277.81;;;-146.10;100.00
12763;BME280;6445;52.490;13.378;2023-03-14T00:10:54;94795.44;;;-146.10;100.00
12763;BME280;6445;52.490;13.378;2023-03-14T00:13:20;95313.09;;;-146.10;100.00
12763;BME280;6445;52.490;13.378;2023-03-14T00:15:45;96089.72;;;-146.10;100.00
12763;BME280;6445;52.490;13.378;2023-03-14T00:18:10;95830.84;;;-146.10;100.00
12763;BME280;6445;52.490;13.378;2023-03-14T00:20:35;95313.09;;;-146.10;100.00
12763;BME280;6445;52.490;13.378;2023-03-14T00:23:01;96089.72;;;-146.10;100.00
12763;BME280;6445;52.490;13.378;2023-03-14T00:25:27;95830.84;;;-146.10;100.00
12763;BME280;6445;52.490;13.378;2023-03-14T00:27:53;95571.97;;;-146.10;100.00
12763;BME280;6445;52.490;13.378;2023-03-14T00:30:18;95313.09;;;-146.10;100.00
12763;BME280;6445;52.490;13.378;2023-03-14T00:32:43;94536.63;;;-146.10;100.00
12763;BME280;6445;52.490;13.378;2023-03-14T00:35:09;94536.63;;;-146.10;100.00
12763;BME280;6445;52.490;13.378;2023-03-14T00:37:34;94795.44;;;-146.10;100.00
12763;BME280;6445;52.490;13.378;2023-03-14T00:39:59;95054.25;;;-146.10;100.00
12763;BME280;6445;52.490;13.378;2023-03-14T00:42:24;93402.50;;;-146.10;100.00
12763;BME280;6445;52.490;13.378;2023-03-14T00:44:50;90022.25;;;-146.10;100.00
12763;BME280;6445;52.490;13.378;2023-03-14T00:47:15;85896.25;;;-146.10;100.00
12763;BME280;6445;52.490;13.378;2023-03-14T00:49:40;81153.75;;;-146.10;100.00
12763;BME280;6445;52.490;13.378;2023-03-14T00:52:08;74054.53;;;-146.10;100.00
12763;BME280;6445;52.490;13.378;2023-03-14T00:54:34;65893.69;;;-146.10;100.00
12763;BME280;6445;52.490;13.378;2023-03-14T00:56:59;56281.34;;;-146.10;100.00
12763;BME280;6445;52.490;13.378;2023-03-14T00:59:24;49110.31;;;-146.10;100.00
12763;BME280;6445;52.490;13.378;2023-03-14T01:01:49;44375.44;;;-146.10;100.00
12763;BME280;6445;52.490;13.378;2023-03-14T01:04:15;40719.31;;;-146.10;100.00
12763;BME280;6445;52.490;13.378;2023-03-14T01:06:40;36652.03;;;-146.10;100.00
12763;BME280;6445;52.490;13.378;2023-03-14T01:09:05;32399.91;;;-146.10;100.00
12763;BME280;6445;52.490;13.378;2023-03-14T01:11:33;26387.06;;;-146.10;100.00
12763;BME280;6445;52.490;13.378;2023-03-14T01:14:00;22350.53;;;-146.10;100.00
12763;BME280;6445;52.490;13.378;2023-03-14T01:16:27;19835.78;;;-146.10;100.00
12763;BME280;6445;52.490;13.378;2023-03-14T01:18:53;18564.13;;;-146.10;100.00
12763;BME280;6445;52.490;13.378;2023-03-14T01:21:23;16212.41;;;-146.10;100.00
12763;BME280;6445;52.490;13.378;2023-03-14T01:23:49;13963.13;;;-146.10;100.00
12763;BME280;6445;52.490;13.378;2023-03-14T01:26:18;12348.78;;;-146.10;100.00
12763;BME280;6445;52.490;13.378;2023-03-14T01:28:47;10986.56;;;-146.10;100.00
12763;BME280;6445;52.490;13.378;2023-03-14T01:31:14;9266.63;;;-146.10;100.00
12763;BME280;6445;52.490;13.378;2023-03-14T01:33:40;8536.53;;;-146.10;100.00
12763;BME280;6445;52.490;13.378;2023-03-14T01:36:06;7557.34;;;-146.10;100.00
12763;BME280;6445;52.490;13.378;2023-03-14T01:38:33;7092.56;;;-146.10;100.00
12763;BME280;6445;52.490;13.378;2023-03-14T01:40:59;6746.47;;;-146.10;100.00
12763;BME280;6445;52.490;13.378;2023-03-14T01:43:24;6999.59;;;-146.10;100.00
12763;BME280;6445;52.490;13.378;2023-03-14T01:46:19;6999.59;;;-146.10;100.00
12763;BME280;6445;52.490;13.378;2023-03-14T01:49:04;6999.59;;;-146.10;100.00
12763;BME280;6445;52.490;13.378;2023-03-14T01:51:49;6999.59;;;-146.10;100.00
12763;BME280;6445;52.490;13.378;2023-03-14T01:54:28;6746.47;;;-146.10;100.00
12763;BME280;6445;52.490;13.378;2023-03-14T01:57:20;6746.47;;;-146.10;100.00
12763;BME280;6445;52.490;13.378;2023-03-14T01:59:48;6493.38;;;-146.10;100.00
12763;BME280;6445;52.490;13.378;2023-03-14T02:02:16;4975.06;;;-146.10;100.00
12763;BME280;6445;52.490;13.378;2023-03-14T02:04:42;5228.06;;;-146.10;100.00
12763;BME280;6445;52.490;13.378;2023-03-14T02:07:21;4975.06;;;-146.10;100.00
12763;BME280;6445;52.490;13.378;2023-03-14T02:09:48;3963.19;;;-146.10;100.00
12763;BME280;6445;52.490;13.378;2023-03-14T02:12:15;3457.34;;;-146.10;100.00
12763;BME280;6445;52.490;13.378;2023-03-14T02:14:41;3457.34;;;-146.10;100.00
12763;BME280;6445;52.490;13.378;2023-03-14T02:17:11;2698.72;;;-146.10;100.00
12763;BME280;6445;52.490;13.378;2023-03-14T02:19:53;1940.22;;;-146.10;100.00
12763;BME280;6445;52.490;13.378;2023-03-14T02:22:21;1434.66;;;-146.10;100.00
12763;BME280;6445;52.490;13.378;2023-03-14T02:25:20;676.41;;;-146.10;100.00
12763;BME280;6445;52.490;13.378;2023-03-14T02:27:48;423.72;;;-146.10;100.00
12763;BME280;6445;52.490;13.378;2023-03-14T02:32:46;929.16;;;-146.10;100.00
12763;BME280;6445;52.490;13.378;2023-03-14T02:35:15;676.41;;;-146.10;100.00
12763;BME280;6445;52.490;13.378;2023-03-14T02:40:29;1940.22;;;-146.10;100.00
12763;BME280;6445;52.490;13.378;2023-03-14T02:42:54;2951.56;;;-146.10;100.00
12763;BME280;6445;52.490;13.378;2023-03-14T02:47:54;4722.06;;;-146.10;100.00
12763;BME280;6445;52.490;13.378;2023-03-14T02:50:25;4722.06;;;-146.10;100.00
12763;BME280;6445;52.490;13.378;2023-03-14T02:52:51;4975.06;;;-146.10;100.00
12763;BME280;6445;52.490;13.378;2023-03-14T02:55:23;4975.06;;;-146.10;100.00
12763;BME280;6445;52.490;13.378;2023-03-14T02:57:50;5228.06;;;-146.10;100.00
12763;BME280;6445;52.490;13.378;2023-03-14T03:00:15;5228.06;;;-146.10;100.00
12763;BME280;6445;52.490;13.378;2023-03-14T03:02:41;4975.06;;;-146.10;100.00
12763;BME280;6445;52.490;13.378;2023-03-14T03:05:06;4216.13;;;-146.10;100.00
12763;BME280;6445;52.490;13.378;2023-03-14T03:07:32;3710.25;;;-146.10;100.00
12763;BME280;6445;52.490;13.378;2023-03-14T03:09:57;3457.34;;;-146.10;100.00
12763;BME280;6445;52.490;13.378;2023-03-14T03:12:22;3963.19;;;-146.10;100.00
12763;BME280;6445;52.490;13.378;2023-03-14T03:14:47;3710.25;;;-146.10;100.00
12763;BME280;6445;52.490;13.378;2023-03-14T03:17:13;3710.25;;;-146.10;100.00
12763;BME280;6445;52.490;13.378;2023-03-14T03:19:38;3963.19;;;-146.10;100.00
12763;BME280;6445;52.490;13.378;2023-03-14T03:22:03;5481.09;;;-146.10;100.00
12763;BME280;6445;52.490;13.378;2023-03-14T03:24:28;4722.06;;;-146.10;100.00
12763;BME280;6445;52.490;13.378;2023-03-14T03:26:54;4975.06;;;-146.10;100.00
12763;BME280;6445;52.490;13.378;2023-03-14T03:29:19;3963.19;;;-146.10;100.00
12763;BME280;6445;52.490;13.378;2023-03-14T03:31:44;3457.34;;;-146.10;100.00
12763;BME280;6445;52.490;13.378;2023-03-14T03:34:13;3204.44;;;-146.10;100.00
12763;BME280;6445;52.490;13.378;2023-03-14T03:36:39;2951.56;;;-146.10;100.00
12763;BME280;6445;52.490;13.378;2023-03-14T03:39:05;2951.56;;;-146.10;100.00
12763;BME280;6445;52.490;13.378;2023-03-14T03:41:30;2951.56;;;-146.10;100.00
12763;BME280;6445;52.490;13.378;2023-03-14T03:43:56;1940.22;;;-146.10;100.00
12763;BME280;6445;52.490;13.378;2023-03-14T03:46:21;1687.44;;;-146.10;100.00
12763;BME280;6445;52.490;13.378;2023-03-14T03:48:47;2698.72;;;-146.10;100.00
12763;BME280;6445;52.490;13.378;2023-03-14T03:51:14;3204.44;;;-146.10;100.00
12763;BME280;6445;52.490;13.378;2023-03-14T03:53:40;3457.34;;;-146.10;100.00
12763;BME280;6445;52.490;13.378;2023-03-14T03:56:05;3963.19;;;-146.10;100.00
12763;BME280;6445;52.490;13.378;2023-03-14T03:58:31;3963.19;;;-146.10;100.00
12763;BME280;6445;52.490;13.378;2023-03-14T04:00:56;5228.06;;;-146.10;100.00
12763;BME280;6445;52.490;13.378;2023-03-14T04:03:21;6240.28;;;-146.10;100.00
12763;BME280;6445;52.490;13.378;2023-03-14T04:05:58;5481.09;;;-146.10;100.00
12763;BME280;6445;52.490;13.378;2023-03-14T04:08:23;6240.28;;;-146.10;100.00
12763;BME280;6445;52.490;13.378;2023-03-14T04:10:49;5734.13;;;-146.10;100.00
12763;BME280;6445;52.490;13.378;2023-03-14T04:13:14;4975.06;;;-146.10;100.00
12763;BME280;6445;52.490;13.378;2023-03-14T04:15:39;5734.13;;;-146.10;100.00
12763;BME280;6445;52.490;13.378;2023-03-14T04:18:04;5734.13;;;-146.10;100.00
12763;BME280;6445;52.490;13.378;2023-03-14T04:20:29;5228.06;;;-146.10;100.00
12763;BME280;6445;52.490;13.378;2023-03-14T04:22:55;5734.13;;;-146.10;100.00
12763;BME280;6445;52.490;13.378;2023-03-14T04:25:20;5734.13;;;-146.10;100.00
12763;BME280;6445;52.490;13.378;2023-03-14T04:27:46;6746.47;;;-146.10;100.00
12763;BME280;6445;52.490;13.378;2023-03-14T04:30:11;7252.75;;;-146.10;100.00
12763;BME280;6445;52.490;13.378;2023-03-14T04:32:39;7759.09;;;-146.10;100.00
12763;BME280;6445;52.490;13.378;2023-03-14T04:35:05;7759.09;;;-146.10;100.00
12763;BME280;6445;52.490;13.378;2023-03-14T04:37:34;8518.72;;;-146.10;100.00
12763;BME280;6445;52.490;13.378;2023-03-14T04:39:59;8265.50;;;-146.10;100.00
12763;BME280;6445;52.490;13.378;2023-03-14T04:42:25;9278.50;;;-146.10;100.00
12763;BME280;6445;52.490;13.378;2023-03-14T04:44:50;9785.09;;;-146.10;100.00
12763;BME280;6445;52.490;13.378;2023-03-14T04:47:15;9785.09;;;-146.10;100.00
12763;BME280;6445;52.490;13.378;2023-03-14T04:49:41;9278.50;;;-146.10;100.00
12763;BME280;6445;52.490;13.378;2023-03-14T04:52:06;10291.75;;;-146.10;100.00
12763;BME280;6445;52.490;13.378;2023-03-14T04:54:31;9785.09;;;-146.10;100.00
12763;BME280;6445;52.490;13.378;2023-03-14T04:56:57;9531.78;;;-146.10;100.00
12763;BME280;6445;52.490;13.378;2023-03-14T04:59:22;10291.75;;;-146.10;100.00
12763;BME280;6445;52.490;13.378;2023-03-14T05:01:47;9785.09;;;-146.10;100.00
12763;BME280;6445;52.490;13.378;2023-03-14T05:04:14;8771.97;;;-146.10;100.00
12763;BME280;6445;52.490;13.378;2023-03-14T05:06:40;9025.22;;;-146.10;100.00
12763;BME280;6445;52.490;13.378;2023-03-14T05:09:05;10291.75;;;-146.10;100.00
12763;BME280;6445;52.490;13.378;2023-03-14T05:11:30;12065.63;;;-146.10;100.00
12763;BME280;6445;52.490;13.378;2023-03-14T05:13:55;13586.72;;;-146.10;100.00
12763;BME280;6445;52.490;13.378;2023-03-14T05:16:21;13586.72;;;-146.10;100.00
12763;BME280;6445;52.490;13.378;2023-03-14T05:18:49;14347.47;;;-146.10;100.00
12763;BME280;6445;52.490;13.378;2023-03-14T05:21:15;15108.41;;;-146.10;100.00
12763;BME280;6445;52.490;13.378;2023-03-14T05:23:40;16376.94;;;-146.10;100.00
12763;BME280;6445;52.490;13.378;2023-03-14T05:26:05;17392.06;;;-146.10;100.00
12763;BME280;6445;52.490;13.378;2023-03-14T05:28:31;16884.47;;;-146.10;100.00
12763;BME280;6445;52.490;13.378;2023-03-14T05:30:56;19931.03;;;-146.10;100.00
12763;BME280;6445;52.490;13.378;2023-03-14T05:33:21;22471.66;;;-146.10;100.00
12763;BME280;6445;52.490;13.378;2023-03-14T05:35:46;23996.81;;;-146.10;100.00
12763;BME280;6445;52.490;13.378;2023-03-14T05:38:12;25522.59;;;-146.10;100.00
12763;BME280;6445;52.490;13.378;2023-03-14T05:40:39;28830.47;;;-146.10;100.00
12763;BME280;6445;52.490;13.378;2023-03-14T05:43:05;32141.13;;;-146.10;100.00
12763;BME280;6445;52.490;13.378;2023-03-14T05:45:33;34054.41;;;-146.10;100.00
12763;BME280;6445;52.490;13.378;2023-03-14T05:47:58;35492.47;;;-146.10;100.00
12763;BME280;6445;52.490;13.378;2023-03-14T05:50:23;36970.91;;;-146.10;100.00
12763;BME280;6445;52.490;13.378;2023-03-14T05:52:48;39568.47;;;-146.10;100.00
12763;BME280;6445;52.490;13.378;2023-03-14T05:55:13;40928.75;;;-146.10;100.00
12763;BME280;6445;52.490;13.378;2023-03-14T05:57:39;42714.59;;;-146.10;100.00
12763;BME280;6445;52.490;13.378;2023-03-14T06:00:04;44427.34;;;-146.10;100.00
12763;BME280;6445;52.490;13.378;2023-03-14T06:02:30;46090.94;;;-146.10;100.00
12763;BME280;6445;52.490;13.378;2023-03-14T06:04:55;47689.25;;;-146.10;100.00
12763;BME280;6445;52.490;13.378;2023-03-14T06:07:20;49022.34;;;-146.10;100.00
12763;BME280;6445;52.490;13.378;2023-03-14T06:09:46;50355.91;;;-146.10;100.00
12763;BME280;6445;52.490;13.378;2023-03-14T06:12:11;51465.88;;;-146.10;100.00
12763;BME280;6445;52.490;13.378;2023-03-14T06:14:36;52880.28;;;-146.10;100.00
12763;BME280;6445;52.490;13.378;2023-03-14T06:17:02;54077.03;;;-146.10;100.00
12763;BME280;6445;52.490;13.378;2023-03-14T06:19:27;55220.06;;;-146.10;100.00
12763;BME280;6445;52.490;13.378;2023-03-14T06:21:52;56277.34;;;-146.10;100.00
12763;BME280;6445;52.490;13.378;2023-03-14T06:24:18;57204.66;;;-146.10;100.00
12763;BME280;6445;52.490;13.378;2023-03-14T06:26:45;58002.00;;;-146.10;100.00
12763;BME280;6445;52.490;13.378;2023-03-14T06:29:12;59104.09;;;-146.10;100.00
12763;BME280;6445;52.490;13.378;2023-03-14T06:31:38;59983.97;;;-146.10;100.00
12763;BME280;6445;52.490;13.378;2023-03-14T06:34:03;60647.53;;;-146.10;100.00
12763;BME280;6445;52.490;13.378;2023-03-14T06:36:30;61339.28;;;-146.10;100.00
12763;BME280;6445;52.490;13.378;2023-03-14T06:38:55;61790.47;;;-146.10;100.00
12763;BME280;6445;52.490;13.378;2023-03-14T06:41:24;62003.03;;;-146.10;100.00
12763;BME280;6445;52.490;13.378;2023-03-14T06:43:51;62919.69;;;-146.10;100.00
12763;BME280;6445;52.490;13.378;2023-03-14T06:46:16;63521.53;;;-146.10;100.00
12763;BME280;6445;52.490;13.378;2023-03-14T06:48:41;63629.88;;;-146.10;100.00
12763;BME280;6445;52.490;13.378;2023-03-14T06:51:06;63904.75;;;-146.10;100.00
12763;BME280;6445;52.490;13.378;2023-03-14T06:53:32;63864.63;;;-146.10;100.00
12763;BME280;6445;52.490;13.378;2023-03-14T06:55:57;64671.31;;;-146.10;100.00
12763;BME280;6445;52.490;13.378;2023-03-14T06:58:22;63852.59;;;-146.10;100.00
12763;BME280;6445;52.490;13.378;2023-03-14T07:00:48;62233.69;;;-146.10;97.89
12763;BME280;6445;52.490;13.378;2023-03-14T07:03:13;63190.50;;;-146.10;98.25
12763;BME280;6445;52.490;13.378;2023-03-14T07:05:39;63009.97;;;-146.10;97.42
12763;BME280;6445;52.490;13.378;2023-03-14T07:08:05;62213.63;;;-146.10;96.33
12763;BME280;6445;52.490;13.378;2023-03-14T07:10:30;60785.88;;;-146.10;94.33
12763;BME280;6445;52.490;13.378;2023-03-14T07:12:56;62608.78;;;-146.10;96.01
12763;BME280;6445;52.490;13.378;2023-03-14T07:15:21;64649.25;;;-146.10;97.84
12763;BME280;6445;52.490;13.378;2023-03-14T07:17:46;65387.84;;;-146.10;97.75
12763;BME280;6445;52.490;13.378;2023-03-14T07:20:13;66102.50;;;-146.10;98.03
12763;BME280;6445;52.490;13.378;2023-03-14T07:22:38;67066.25;;;-146.10;98.75
12763;BME280;6445;52.490;13.378;2023-03-14T07:25:04;65877.63;;;-146.10;97.48
12763;BME280;6445;52.490;13.378;2023-03-14T07:27:29;63280.78;;;-146.10;94.77
12763;BME280;6445;52.490;13.378;2023-03-14T07:29:54;60324.75;;;-146.10;91.25
12763;BME280;6445;52.490;13.378;2023-03-14T07:32:19;56944.28;;;-146.10;86.34
12763;BME280;6445;52.490;13.378;2023-03-14T07:34:45;53972.94;;;-146.10;79.43
12763;BME280;6445;52.490;13.378;2023-03-14T07:37:10;54133.06;;;-146.10;80.77
12763;BME280;6445;52.490;13.378;2023-03-14T07:39:35;55370.22;;;-146.10;83.88
12763;BME280;6445;52.490;13.378;2023-03-14T07:42:01;56275.34;;;-146.10;85.57
12763;BME280;6445;52.490;13.378;2023-03-14T07:44:26;57194.66;;;-146.10;87.39
12763;BME280;6445;52.490;13.378;2023-03-14T07:46:52;57012.38;;;-146.10;86.88
12763;BME280;6445;52.490;13.378;2023-03-14T07:49:17;57394.97;;;-146.10;87.18
12763;BME280;6445;52.490;13.378;2023-03-14T07:51:42;57288.81;;;-146.10;86.51
12763;BME280;6445;52.490;13.378;2023-03-14T07:54:09;56089.09;;;-146.10;84.52
12763;BME280;6445;52.490;13.378;2023-03-14T07:56:35;55968.94;;;-146.10;84.37
12763;BME280;6445;52.490;13.378;2023-03-14T07:59:00;55508.38;;;-146.10;83.30
12763;BME280;6445;52.490;13.378;2023-03-14T08:01:25;54377.28;;;-146.10;80.07
12763;BME280;6445;52.490;13.378;2023-03-14T08:03:51;55726.63;;;-146.10;84.01
12763;BME280;6445;52.490;13.378;2023-03-14T08:06:16;56006.97;;;-146.10;83.96
12763;BME280;6445;52.490;13.378;2023-03-14T08:08:41;55081.94;;;-146.10;82.47
12763;BME280;6445;52.490;13.378;2023-03-14T08:11:07;55880.81;;;-146.10;84.02
12763;BME280;6445;52.490;13.378;2023-03-14T08:13:36;57006.38;;;-146.10;86.59
12763;BME280;6445;52.490;13.378;2023-03-14T08:16:02;59414.72;;;-146.10;89.82
12763;BME280;6445;52.490;13.378;2023-03-14T08:18:28;59025.94;;;-146.10;88.88
12763;BME280;6445;52.490;13.378;2023-03-14T08:20:53;60773.84;;;-146.10;90.42
12763;BME280;6445;52.490;13.378;2023-03-14T08:23:18;60797.91;;;-146.10;90.35
12763;BME280;6445;52.490;13.378;2023-03-14T08:25:43;62243.72;;;-146.10;91.72
12763;BME280;6445;52.490;13.378;2023-03-14T08:28:09;63633.88;;;-146.10;92.90
12763;BME280;6445;52.490;13.378;2023-03-14T08:30:34;62803.34;;;-146.10;91.86
12763;BME280;6445;52.490;13.378;2023-03-14T08:32:59;62925.72;;;-146.10;91.85
12763;BME280;6445;52.490;13.378;2023-03-14T08:35:25;63666.00;;;-146.10;92.70
12763;BME280;6445;52.490;13.378;2023-03-14T08:37:51;62183.56;;;-146.10;91.03
12763;BME280;6445;52.490;13.378;2023-03-14T08:40:17;62739.16;;;-146.10;91.77
12763;BME280;6445;52.490;13.378;2023-03-14T08:42:43;65161.03;;;-146.10;93.57
12763;BME280;6445;52.490;13.378;2023-03-14T08:45:09;64151.56;;;-146.10;92.81
12763;BME280;6445;52.490;13.378;2023-03-14T08:47:35;64338.19;;;-146.10;92.83
12763;BME280;6445;52.490;13.378;2023-03-14T08:50:02;64211.75;;;-146.10;92.56
12763;BME280;6445;52.490;13.378;2023-03-14T08:52:29;63991.03;;;-146.10;92.55
12763;BME280;6445;52.490;13.378;2023-03-14T08:54:55;64271.97;;;-146.10;92.69
12763;BME280;6445;52.490;13.378;2023-03-14T08:57:20;64554.91;;;-146.10;92.67
12763;BME280;6445;52.490;13.378;2023-03-14T08:59:47;63094.22;;;-146.10;91.73
12763;BME280;6445;52.490;13.378;2023-03-14T09:02:12;63009.97;;;-146.10;91.27
12763;BME280;6445;52.490;13.378;2023-03-14T09:04:37;62460.34;;;-146.10;91.18
12763;BME280;6445;52.490;13.378;2023-03-14T09:07:03;61479.63;;;-146.10;89.73
12763;BME280;6445;52.490;13.378;2023-03-14T09:09:28;59567.06;;;-146.10;87.73
12763;BME280;6445;52.490;13.378;2023-03-14T09:11:54;57653.41;;;-146.10;84.80
12763;BME280;6445;52.490;13.378;2023-03-14T09:14:19;55127.97;;;-146.10;79.08
12763;BME280;6445;52.490;13.378;2023-03-14T09:16:44;52428.09;;;-146.10;63.75
12763;BME280;6445;52.490;13.378;2023-03-14T09:19:10;52260.03;;;-146.10;55.76
12763;BME280;6445;52.490;13.378;2023-03-14T09:21:35;52272.03;;;-146.10;51.52
12763;BME280;6445;52.490;13.378;2023-03-14T09:24:01;52290.06;;;-146.10;49.96
12763;BME280;6445;52.490;13.378;2023-03-14T09:26:26;52362.06;;;-146.10;45.86
12763;BME280;6445;52.490;13.378;2023-03-14T09:28:52;52336.06;;;-146.10;44.24
12763;BME280;6445;52.490;13.378;2023-03-14T09:31:17;52398.09;;;-146.10;42.57
12763;BME280;6445;52.490;13.378;2023-03-14T09:33:42;52448.09;;;-146.10;40.46
12763;BME280;6445;52.490;13.378;2023-03-14T09:36:08;52462.09;;;-146.10;40.04
12763;BME280;6445;52.490;13.378;2023-03-14T09:38:34;52338.06;;;-146.10;42.24
12763;BME280;6445;52.490;13.378;2023-03-14T09:41:01;52222.03;;;-146.10;46.23
12763;BME280;6445;52.490;13.378;2023-03-14T09:43:29;52216.03;;;-146.10;53.68
12763;BME280;6445;52.490;13.378;2023-03-14T09:45:57;52216.03;;;-146.10;61.19
12763;BME280;6445;52.490;13.378;2023-03-14T09:48:27;52320.06;;;-146.10;65.80
12763;BME280;6445;52.490;13.378;2023-03-14T09:50:58;52414.09;;;-146.10;67.78
12763;BME280;6445;52.490;13.378;2023-03-14T09:53:27;52598.16;;;-146.10;71.23
12763;BME280;6445;52.490;13.378;2023-03-14T09:55:54;52710.22;;;-146.10;72.81
12763;BME280;6445;52.490;13.378;2023-03-14T09:58:23;52810.25;;;-146.10;72.91
12763;BME280;6445;52.490;13.378;2023-03-14T10:00:50;52850.28;;;-146.10;73.88
12763;BME280;6445;52.490;13.378;2023-03-14T10:03:22;52926.31;;;-146.10;74.22
12763;BME280;6445;52.490;13.378;2023-03-14T10:05:49;52888.28;;;-146.10;73.54
12763;BME280;6445;52.490;13.378;2023-03-14T10:08:14;52838.25;;;-146.10;73.32
12763;BME280;6445;52.490;13.378;2023-03-14T10:10:40;52890.28;;;-146.10;73.49
12763;BME280;6445;52.490;13.378;2023-03-14T10:13:33;52876.28;;;-146.10;73.45
12763;BME280;6445;52.490;13.378;2023-03-14T10:16:03;52828.25;;;-146.10;73.22
12763;BME280;6445;52.490;13.378;2023-03-14T10:18:32;52764.22;;;-146.10;72.29
12763;BME280;6445;52.490;13.378;2023-03-14T10:21:04;52690.19;;;-146.10;71.65
12763;BME280;6445;52.490;13.378;2023-03-14T10:23:31;52690.19;;;-146.10;71.31
12763;BME280;6445;52.490;13.378;2023-03-14T10:26:27;52684.19;;;-146.10;71.13
12763;BME280;6445;52.490;13.378;2023-03-14T10:29:01;52670.19;;;-146.10;71.60
12763;BME280;6445;52.490;13.378;2023-03-14T10:31:27;52686.19;;;-146.10;71.73
12763;BME280;6445;52.490;13.378;2023-03-14T10:34:04;52620.16;;;-146.10;71.49
12763;BME280;6445;52.490;13.378;2023-03-14T10:36:31;52576.16;;;-146.10;70.52
12763;BME280;6445;52.490;13.378;2023-03-14T10:39:15;52592.16;;;-146.10;71.04
12763;BME280;6445;52.490;13.378;2023-03-14T10:41:48;52612.16;;;-146.10;70.87
12763;BME280;6445;52.490;13.378;2023-03-14T10:44:19;52610.16;;;-146.10;70.73
12763;BME280;6445;52.490;13.378;2023-03-14T10:46:45;52482.13;;;-146.10;69.47
12763;BME280;6445;52.490;13.378;2023-03-14T10:49:25;52512.13;;;-146.10;69.29
12763;BME280;6445;52.490;13.378;2023-03-14T10:51:51;52516.13;;;-146.10;69.86
12763;BME280;6445;52.490;13.378;2023-03-14T10:54:22;52528.13;;;-146.10;70.35
12763;BME280;6445;52.490;13.378;2023-03-14T10:56:58;52532.13;;;-146.10;70.35
12763;BME280;6445;52.490;13.378;2023-03-14T10:59:24;52540.13;;;-146.10;70.05
12763;BME280;6445;52.490;13.378;2023-03-14T11:02:00;52510.13;;;-146.10;69.80
12763;BME280;6445;52.490;13.378;2023-03-14T11:07:24;52504.13;;;-146.10;69.63
12763;BME280;6445;52.490;13.378;2023-03-14T11:10:07;52534.13;;;-146.10;70.00
12763;BME280;6445;52.490;13.378;2023-03-14T11:15:40;52584.16;;;-146.10;70.13
12763;BME280;6445;52.490;13.378;2023-03-14T11:18:20;52534.13;;;-146.10;69.17
12763;BME280;6445;52.490;13.378;2023-03-14T11:20:55;52588.16;;;-146.10;70.33
12763;BME280;6445;52.490;13.378;2023-03-14T11:26:00;52612.16;;;-146.10;71.07
12763;BME280;6445;52.490;13.378;2023-03-14T11:28:36;52676.19;;;-146.10;71.91
12763;BME280;6445;52.490;13.378;2023-03-14T11:31:16;52728.22;;;-146.10;72.00
12763;BME280;6445;52.490;13.378;2023-03-14T11:33:51;52782.25;;;-146.10;72.33
12763;BME280;6445;52.490;13.378;2023-03-14T11:36:33;52782.25;;;-146.10;72.72
12763;BME280;6445;52.490;13.378;2023-03-14T11:39:02;52836.25;;;-146.10;73.09
12763;BME280;6445;52.490;13.378;2023-03-14T11:41:41;52972.31;;;-146.10;74.44
12763;BME280;6445;52.490;13.378;2023-03-14T11:46:47;53240.47;;;-146.10;76.17
12763;BME280;6445;52.490;13.378;2023-03-14T11:49:30;53468.59;;;-146.10;76.80
12763;BME280;6445;52.490;13.378;2023-03-14T11:51:59;53438.59;;;-146.10;76.72
12763;BME280;6445;52.490;13.378;2023-03-14T11:54:48;53758.78;;;-146.10;78.38
12763;BME280;6445;52.490;13.378;2023-03-14T11:57:21;53936.91;;;-146.10;79.11
12763;BME280;6445;52.490;13.378;2023-03-14T12:00:04;54293.19;;;-146.10;80.25
12763;BME280;6445;52.490;13.378;2023-03-14T12:02:45;54475.34;;;-146.10;80.37
12763;BME280;6445;52.490;13.378;2023-03-14T12:05:22;54323.22;;;-146.10;79.30
12763;BME280;6445;52.490;13.378;2023-03-14T12:10:38;54521.41;;;-146.10;79.82
12763;BME280;6445;52.490;13.378;2023-03-14T12:13:03;54691.53;;;-146.10;80.69
12763;BME280;6445;52.490;13.378;2023-03-14T12:15:29;54729.59;;;-146.10;80.28
12763;BME280;6445;52.490;13.378;2023-03-14T12:17:55;54563.44;;;-146.10;79.74
12763;BME280;6445;52.490;13.378;2023-03-14T12:20:22;54295.19;;;-146.10;78.93
12763;BME280;6445;52.490;13.378;2023-03-14T12:22:53;54507.38;;;-146.10;79.89
12763;BME280;6445;52.490;13.378;2023-03-14T12:25:21;54691.53;;;-146.10;80.10
12763;BME280;6445;52.490;13.378;2023-03-14T12:30:29;54787.63;;;-146.10;81.14
12763;BME280;6445;52.490;13.378;2023-03-14T12:35:48;55752.66;;;-146.10;82.77
12763;BME280;6445;52.490;13.378;2023-03-14T12:41:24;55770.69;;;-146.10;82.56
12763;BME280;6445;52.490;13.378;2023-03-14T12:43:52;57112.53;;;-146.10;84.59
12763;BME280;6445;52.490;13.378;2023-03-14T12:48:50;56972.31;;;-146.10;83.88
12763;BME280;6445;52.490;13.378;2023-03-14T12:51:20;56073.06;;;-146.10;82.21
12763;BME280;6445;52.490;13.378;2023-03-14T12:56:43;53846.84;;;-146.10;76.39
12763;BME280;6445;52.490;13.378;2023-03-14T12:59:32;55009.84;;;-146.10;81.23
12763;BME280;6445;52.490;13.378;2023-03-14T13:08:03;72023.31;;;-146.10;97.26
12763;BME280;6445;52.490;13.378;2023-03-14T13:10:23;84433.78;;;-146.10;100.00
12763;BME280;6445;52.490;13.378;2023-03-14T13:12:56;91173.59;;;-146.10;100.00
12763;BME280;6445;52.490;13.378;2023-03-14T13:15:55;97125.47;;;-146.10;100.00
12763;BME280;6445;52.490;13.378;2023-03-14T13:18:34;86106.09;;;-146.10;100.00
12763;BME280;6445;52.490;13.378;2023-03-14T13:21:17;50519.88;;;-146.10;100.00
12763;BME280;6445;52.490;13.378;2023-03-14T13:24:03;20585.88;;;-146.10;100.00